createdAt,value
2023-02-21T00:00:59.929Z,7.65
2023-02-21T00:03:45.931Z,6.30
2023-02-21T00:06:32.201Z,5.97
2023-02-21T00:09:18.044Z,5.80
2023-02-21T00:12:04.422Z,5.70
2023-02-21T00:14:50.093Z,5.63
2023-02-21T00:17:37.980Z,4.85
2023-02-21T00:20:23.859Z,5.53
2023-02-21T00:23:09.664Z,5.50
2023-02-21T00:25:55.546Z,5.18
2023-02-21T00:28:41.614Z,5.70
2023-02-21T00:31:27.780Z,6.00
2023-02-21T00:34:13.850Z,5.22
2023-02-21T00:36:59.886Z,5.53
2023-02-21T00:39:45.551Z,6.15
2023-02-21T00:42:31.104Z,6.53
2023-02-21T00:45:17.042Z,5.55
2023-02-21T00:48:02.748Z,5.53
2023-02-21T00:50:48.593Z,6.03
2023-02-21T00:53:34.452Z,5.70
2023-02-21T00:56:20.210Z,5.05
2023-02-21T00:59:05.922Z,5.40
2023-02-21T01:01:51.676Z,5.70
2023-02-21T01:04:37.444Z,5.13
2023-02-21T01:07:23.366Z,5.65
2023-02-21T01:10:09.354Z,6.22
2023-02-21T01:12:55.273Z,5.97
2023-02-21T01:15:43.943Z,4.75
2023-02-21T01:18:29.399Z,5.30
2023-02-21T01:21:15.267Z,4.72
2023-02-21T01:24:01.138Z,4.90
2023-02-21T01:26:46.818Z,4.22
2023-02-21T01:29:32.596Z,4.57
2023-02-21T01:32:19.401Z,3.67
2023-02-21T01:35:05.296Z,3.75
2023-02-21T01:37:50.575Z,4.68
2023-02-21T01:40:36.598Z,4.13
2023-02-21T01:43:40.384Z,3.55
2023-02-21T01:46:36.180Z,3.70
2023-02-21T01:49:33.081Z,4.22
2023-02-21T01:52:21.461Z,4.28
2023-02-21T01:55:12.486Z,3.90
2023-02-21T01:57:58.853Z,3.67
2023-02-21T02:00:46.785Z,3.37
2023-02-21T02:03:36.801Z,3.95
2023-02-21T02:06:27.258Z,4.30
2023-02-21T02:09:13.118Z,3.92
2023-02-21T02:12:12.072Z,3.50
2023-02-21T02:15:09.278Z,3.30
2023-02-21T02:17:55.918Z,3.67
2023-02-21T02:20:31.795Z,4.13
2023-02-21T02:23:07.667Z,4.15
2023-02-21T02:26:04.400Z,3.83
2023-02-21T02:29:04.883Z,3.47
2023-02-21T02:32:39.829Z,3.40
2023-02-21T02:35:27.573Z,3.78
2023-02-21T02:38:10.041Z,3.50
2023-02-21T02:41:24.652Z,3.65
2023-02-21T02:44:06.755Z,4.40
2023-02-21T02:46:37.464Z,3.47
2023-02-21T02:49:20.236Z,4.15
2023-02-21T02:51:49.825Z,4.35
2023-02-21T02:54:19.218Z,3.95
2023-02-21T02:56:47.567Z,3.20
2023-02-21T02:59:25.912Z,3.97
2023-02-21T03:02:19.843Z,3.45
2023-02-21T03:05:33.059Z,3.15
2023-02-21T03:08:26.655Z,4.10
2023-02-21T03:11:25.230Z,3.40
2023-02-21T03:14:13.863Z,3.78
2023-02-21T03:16:55.784Z,2.97
2023-02-21T03:19:38.569Z,3.67
2023-02-21T03:22:19.440Z,2.83
2023-02-21T03:24:50.091Z,3.93
2023-02-21T03:27:19.907Z,3.63
2023-02-21T03:30:03.734Z,3.33
2023-02-21T03:32:36.420Z,3.22
2023-02-21T03:35:05.819Z,3.13
2023-02-21T03:37:40.086Z,2.77
2023-02-21T03:40:19.976Z,3.50
2023-02-21T03:42:56.382Z,2.80
2023-02-21T03:45:25.251Z,2.72
2023-02-21T03:48:30.936Z,2.97
2023-02-21T03:51:05.591Z,2.90
2023-02-21T03:53:36.986Z,3.25
2023-02-21T03:56:06.036Z,2.83
2023-02-21T03:58:48.103Z,3.80
2023-02-21T04:01:16.692Z,3.25
2023-02-21T04:03:44.235Z,2.90
2023-02-21T04:06:11.410Z,3.15
2023-02-21T04:08:38.567Z,3.35
2023-02-21T04:11:05.939Z,4.50
2023-02-21T04:13:35.123Z,3.20
2023-02-21T04:16:03.520Z,3.80
2023-02-21T04:18:31.502Z,3.38
2023-02-21T04:21:01.103Z,3.08
2023-02-21T04:23:29.023Z,3.13
2023-02-21T04:25:56.365Z,3.33
2023-02-21T04:28:37.657Z,2.70
2023-02-21T04:31:05.113Z,3.00
2023-02-21T04:33:32.567Z,3.92
2023-02-21T04:36:00.002Z,3.80
2023-02-21T04:38:39.703Z,2.67
2023-02-21T04:41:07.134Z,2.43
2023-02-21T04:43:35.199Z,2.33
2023-02-21T04:46:02.354Z,3.05
2023-02-21T04:48:29.509Z,2.60
2023-02-21T04:51:01.505Z,3.10
2023-02-21T04:53:34.009Z,2.60
2023-02-21T04:56:01.119Z,3.33
2023-02-21T04:58:31.168Z,3.08
2023-02-21T05:01:03.590Z,2.08
2023-02-21T05:03:30.740Z,2.50
2023-02-21T05:05:57.808Z,2.87
2023-02-21T05:08:27.381Z,2.53
2023-02-21T05:10:56.022Z,3.00
2023-02-21T05:13:23.913Z,2.10
2023-02-21T05:15:51.009Z,2.72
2023-02-21T05:18:23.399Z,2.30
2023-02-21T05:20:50.687Z,2.03
2023-02-21T05:23:34.032Z,1.90
2023-02-21T05:26:13.317Z,1.90
2023-02-21T05:28:41.709Z,2.33
2023-02-21T05:31:09.107Z,1.80
2023-02-21T05:33:36.358Z,2.20
2023-02-21T05:36:03.991Z,2.03
2023-02-21T05:38:31.086Z,1.63
2023-02-21T05:40:58.209Z,2.00
2023-02-21T05:43:26.926Z,1.97
2023-02-21T05:45:55.193Z,2.00
2023-02-21T05:48:24.119Z,2.40
2023-02-21T05:50:51.268Z,1.80
2023-02-21T05:53:18.345Z,2.30
2023-02-21T05:55:45.522Z,1.40
2023-02-21T05:58:12.605Z,2.25
2023-02-21T06:00:39.827Z,1.88
2023-02-21T06:03:06.992Z,1.65
2023-02-21T06:05:34.129Z,2.00
2023-02-21T06:08:01.227Z,1.87
2023-02-21T06:10:28.385Z,1.60
2023-02-21T06:12:55.573Z,2.33
2023-02-21T06:15:22.650Z,2.00
2023-02-21T06:17:49.715Z,2.35
2023-02-21T06:20:19.744Z,2.00
2023-02-21T06:22:48.061Z,1.52
2023-02-21T06:25:15.601Z,2.35
2023-02-21T06:27:43.955Z,1.77
2023-02-21T06:30:12.437Z,1.90
2023-02-21T06:32:39.578Z,2.37
2023-02-21T06:35:07.453Z,1.92
2023-02-21T06:37:34.863Z,3.15
2023-02-21T06:40:01.988Z,2.55
2023-02-21T06:42:30.088Z,2.88
2023-02-21T06:44:57.310Z,2.60
2023-02-21T06:47:24.438Z,2.75
2023-02-21T06:49:51.660Z,3.03
2023-02-21T06:52:18.826Z,2.80
2023-02-21T06:54:46.087Z,3.38
2023-02-21T06:57:13.266Z,3.67
2023-02-21T06:59:41.224Z,3.10
2023-02-21T07:02:18.500Z,3.78
2023-02-21T07:04:49.014Z,3.13
2023-02-21T07:07:16.530Z,4.63
2023-02-21T07:09:43.696Z,3.83
2023-02-21T07:12:10.819Z,4.68
2023-02-21T07:14:38.245Z,3.78
2023-02-21T07:17:05.436Z,4.38
2023-02-21T07:19:32.530Z,4.80
2023-02-21T07:21:59.706Z,3.43
2023-02-21T07:24:26.963Z,4.57
2023-02-21T07:26:54.157Z,4.38
2023-02-21T07:29:21.368Z,4.82
2023-02-21T07:31:48.560Z,4.63
2023-02-21T07:34:15.765Z,5.83
2023-02-21T07:36:43.092Z,5.18
2023-02-21T07:39:10.169Z,5.15
2023-02-21T07:41:37.332Z,4.78
2023-02-21T07:44:04.570Z,5.20
2023-02-21T07:46:31.911Z,4.63
2023-02-21T07:48:59.035Z,4.75
2023-02-21T07:51:31.343Z,4.28
2023-02-21T07:53:58.481Z,5.15
2023-02-21T07:56:25.679Z,4.75
2023-02-21T07:58:52.738Z,4.53
2023-02-21T08:01:24.687Z,5.20
2023-02-21T08:03:51.942Z,5.10
2023-02-21T08:06:19.409Z,5.30
2023-02-21T08:08:46.497Z,4.22
2023-02-21T08:11:13.956Z,4.90
2023-02-21T08:13:41.174Z,4.78
2023-02-21T08:16:08.299Z,3.72
2023-02-21T08:18:35.419Z,4.15
2023-02-21T08:21:02.591Z,3.90
2023-02-21T08:23:29.726Z,4.20
2023-02-21T08:25:56.840Z,4.80
2023-02-21T08:28:23.939Z,4.53
2023-02-21T08:30:51.085Z,4.85
2023-02-21T08:33:18.304Z,4.85
2023-02-21T08:35:45.512Z,4.43
2023-02-21T08:38:12.621Z,4.57
2023-02-21T08:40:39.900Z,5.15
2023-02-21T08:43:07.173Z,4.00
2023-02-21T08:45:34.333Z,5.07
2023-02-21T08:48:01.521Z,4.70
2023-02-21T08:50:29.455Z,5.32
2023-02-21T08:52:56.966Z,6.22
2023-02-21T08:55:24.652Z,5.43
2023-02-21T08:57:53.966Z,6.05
2023-02-21T09:00:24.405Z,4.67
2023-02-21T09:02:52.681Z,4.45
2023-02-21T09:05:27.075Z,5.45
2023-02-21T09:07:59.091Z,5.95
2023-02-21T09:10:31.772Z,5.07
2023-02-21T09:12:59.009Z,4.87
2023-02-21T09:15:26.183Z,4.60
2023-02-21T09:17:54.655Z,5.03
2023-02-21T09:20:26.720Z,4.22
2023-02-21T09:22:54.386Z,5.28
2023-02-21T09:25:25.166Z,5.10
2023-02-21T09:27:54.798Z,4.30
2023-02-21T09:30:26.734Z,4.25
2023-02-21T09:32:55.054Z,4.47
2023-02-21T09:35:23.390Z,5.53
2023-02-21T09:37:50.589Z,4.77
2023-02-21T09:40:36.495Z,5.57
2023-02-21T09:43:09.529Z,5.50
2023-02-21T09:45:38.706Z,5.63
2023-02-21T09:48:15.593Z,5.00
2023-02-21T09:50:53.578Z,5.90
2023-02-21T09:53:33.888Z,6.22
2023-02-21T09:56:11.254Z,5.10
2023-02-21T09:58:44.513Z,6.03
2023-02-21T10:01:29.800Z,5.82
2023-02-21T10:04:28.247Z,6.33
2023-02-21T10:07:02.878Z,6.10
2023-02-21T10:09:52.476Z,6.22
2023-02-21T10:12:22.626Z,6.55
2023-02-21T10:15:14.438Z,6.60
2023-02-21T10:18:22.431Z,7.70
2023-02-21T10:20:59.440Z,9.77
2023-02-21T10:23:46.831Z,11.32
2023-02-21T10:26:29.019Z,11.10
2023-02-21T10:28:57.278Z,8.20
2023-02-21T10:31:39.977Z,9.67
2023-02-21T10:34:26.968Z,9.18
2023-02-21T10:36:56.921Z,8.68
2023-02-21T10:39:44.847Z,8.68
2023-02-21T10:42:23.942Z,8.13
2023-02-21T10:44:51.801Z,7.17
2023-02-21T10:47:59.094Z,8.05
2023-02-21T10:51:03.586Z,9.10
2023-02-21T10:53:39.033Z,9.50
2023-02-21T10:56:15.491Z,8.85
2023-02-21T10:58:55.085Z,11.20
2023-02-21T11:01:30.390Z,8.68
2023-02-21T11:04:08.235Z,10.07
2023-02-21T11:06:39.827Z,9.70
2023-02-21T11:09:42.941Z,10.43
2023-02-21T11:12:16.164Z,9.17
2023-02-21T11:15:07.759Z,10.50
2023-02-21T11:17:34.904Z,10.05
2023-02-21T11:20:06.700Z,9.02
2023-02-21T11:22:52.787Z,9.68
2023-02-21T11:25:32.815Z,10.43
2023-02-21T11:28:18.849Z,8.57
2023-02-21T11:30:59.281Z,8.95
2023-02-21T11:33:27.775Z,8.65
2023-02-21T11:36:18.751Z,8.25
2023-02-21T11:39:01.018Z,7.63
2023-02-21T11:41:48.860Z,7.82
2023-02-21T11:44:38.942Z,7.50
2023-02-21T11:47:27.385Z,8.98
2023-02-21T11:50:06.363Z,8.23
2023-02-21T11:52:39.160Z,8.27
2023-02-21T11:55:16.788Z,9.75
2023-02-21T11:57:52.343Z,9.07
2023-02-21T12:01:02.165Z,9.73
2023-02-21T12:04:06.514Z,8.48
2023-02-21T12:06:33.583Z,8.20
2023-02-21T12:09:20.042Z,8.45
2023-02-21T12:12:24.016Z,7.90
2023-02-21T12:15:06.313Z,6.25
2023-02-21T12:17:59.178Z,7.15
2023-02-21T12:21:18.069Z,7.77
2023-02-21T12:24:04.526Z,7.38
2023-02-21T12:27:02.782Z,7.32
2023-02-21T12:29:57.649Z,6.93
2023-02-21T12:32:25.006Z,6.18
2023-02-21T12:35:34.094Z,6.30
2023-02-21T12:38:43.864Z,6.63
2023-02-21T12:41:42.417Z,6.30
2023-02-21T12:44:38.624Z,5.82
2023-02-21T12:47:22.325Z,5.90
2023-02-21T12:50:02.187Z,6.30
2023-02-21T12:52:40.291Z,5.88
2023-02-21T12:55:22.660Z,6.85
2023-02-21T12:58:10.132Z,6.03
2023-02-21T13:00:55.095Z,5.82
2023-02-21T13:04:16.254Z,5.90
2023-02-21T13:07:01.029Z,7.47
2023-02-21T13:09:39.624Z,8.73
2023-02-21T13:12:19.883Z,8.35
2023-02-21T13:14:58.730Z,8.00
2023-02-21T13:17:27.480Z,7.70
2023-02-21T13:20:10.014Z,8.50
2023-02-21T13:23:52.200Z,7.03
2023-02-21T13:26:52.641Z,5.63
2023-02-21T13:29:40.853Z,5.82
2023-02-21T13:32:12.957Z,6.33
2023-02-21T13:34:45.995Z,5.45
2023-02-21T13:37:21.675Z,6.32
2023-02-21T13:40:01.405Z,6.65
2023-02-21T13:42:30.346Z,6.75
2023-02-21T13:45:17.018Z,6.37
2023-02-21T13:47:53.255Z,6.30
2023-02-21T13:50:38.710Z,6.45
2023-02-21T13:53:09.203Z,5.95
2023-02-21T13:55:37.589Z,6.18
2023-02-21T13:58:07.419Z,5.73
2023-02-21T14:00:34.611Z,6.30
2023-02-21T14:03:08.910Z,7.20
2023-02-21T14:05:49.928Z,6.47
2023-02-21T14:08:31.904Z,6.90
2023-02-21T14:11:01.823Z,6.97
2023-02-21T14:13:39.783Z,5.70
2023-02-21T14:16:13.242Z,6.28
2023-02-21T14:18:47.091Z,5.90
2023-02-21T14:21:29.737Z,5.72
2023-02-21T14:24:23.160Z,6.07
2023-02-21T14:26:57.886Z,5.00
2023-02-21T14:29:40.985Z,5.63
2023-02-21T14:32:08.468Z,5.43
2023-02-21T14:34:48.044Z,6.38
2023-02-21T14:37:40.385Z,5.20
2023-02-21T14:40:10.692Z,5.50
2023-02-21T14:43:06.734Z,5.57
2023-02-21T14:46:01.892Z,5.20
2023-02-21T14:48:58.858Z,6.03
2023-02-21T14:52:18.796Z,5.43
2023-02-21T14:55:16.566Z,5.03
2023-02-21T14:57:49.353Z,5.00
2023-02-21T15:00:16.423Z,5.15
2023-02-21T15:03:15.304Z,5.13
2023-02-21T15:06:12.628Z,5.50
2023-02-21T15:08:46.738Z,6.10
2023-02-21T15:11:26.016Z,6.28
2023-02-21T15:14:13.806Z,6.40
2023-02-21T15:16:46.935Z,5.47
2023-02-21T15:19:29.956Z,7.77
2023-02-21T15:22:27.035Z,6.57
2023-02-21T15:25:17.236Z,6.80
2023-02-21T15:27:47.482Z,7.32
2023-02-21T15:30:22.444Z,6.80
2023-02-21T15:33:15.968Z,7.47
2023-02-21T15:35:57.807Z,6.95
2023-02-21T15:38:57.886Z,8.07
2023-02-21T15:41:34.854Z,6.55
2023-02-21T15:44:16.465Z,7.00
2023-02-21T15:47:02.725Z,7.10
2023-02-21T15:49:36.790Z,7.57
2023-02-21T15:52:05.515Z,8.20
2023-02-21T15:54:39.213Z,6.70
2023-02-21T15:57:20.378Z,7.97
2023-02-21T15:59:47.874Z,7.63
2023-02-21T16:02:20.962Z,7.45
2023-02-21T16:04:51.206Z,7.55
2023-02-21T16:07:28.310Z,6.65
2023-02-21T16:10:02.115Z,7.35
2023-02-21T16:12:40.052Z,7.47
2023-02-21T16:15:23.017Z,7.32
2023-02-21T16:18:03.550Z,8.52
2023-02-21T16:20:35.424Z,7.90
2023-02-21T16:23:26.793Z,8.38
2023-02-21T16:26:00.118Z,7.17
2023-02-21T16:28:28.713Z,6.72
2023-02-21T16:30:59.142Z,7.68
2023-02-21T16:33:27.984Z,7.45
2023-02-21T16:35:56.392Z,7.13
2023-02-21T16:38:26.477Z,6.77
2023-02-21T16:40:53.923Z,7.05
2023-02-21T16:43:28.065Z,7.28
2023-02-21T16:45:59.083Z,7.03
2023-02-21T16:48:33.223Z,7.10
2023-02-21T16:51:04.921Z,7.53
2023-02-21T16:53:32.361Z,8.40
2023-02-21T16:56:01.454Z,7.00
2023-02-21T16:58:52.198Z,6.88
2023-02-21T17:01:32.380Z,7.60
2023-02-21T17:04:01.576Z,7.30
2023-02-21T17:06:29.416Z,7.25
2023-02-21T17:08:56.860Z,6.47
2023-02-21T17:11:23.982Z,7.45
2023-02-21T17:13:51.416Z,7.60
2023-02-21T17:16:19.443Z,6.80
2023-02-21T17:18:48.034Z,7.63
2023-02-21T17:21:15.457Z,8.23
2023-02-21T17:23:42.929Z,8.80
2023-02-21T17:26:12.188Z,7.80
2023-02-21T17:28:39.913Z,8.63
2023-02-21T17:31:07.489Z,8.00
2023-02-21T17:33:36.075Z,8.85
2023-02-21T17:36:03.527Z,8.13
2023-02-21T17:38:30.634Z,8.38
2023-02-21T17:40:58.247Z,9.40
2023-02-21T17:43:25.495Z,8.27
2023-02-21T17:45:52.653Z,8.43
2023-02-21T17:48:19.785Z,8.68
2023-02-21T17:50:46.854Z,9.02
2023-02-21T17:53:14.114Z,9.93
2023-02-21T17:55:41.412Z,9.40
2023-02-21T17:58:09.758Z,11.45
2023-02-21T18:00:39.366Z,10.27
2023-02-21T18:03:07.618Z,9.13
2023-02-21T18:05:36.095Z,10.67
2023-02-21T18:08:04.555Z,9.88
2023-02-21T18:10:31.798Z,11.70
2023-02-21T18:12:58.909Z,12.35
2023-02-21T18:15:29.847Z,16.08
2023-02-21T18:18:04.470Z,14.00
2023-02-21T18:20:33.018Z,13.98
2023-02-21T18:23:03.160Z,16.55
2023-02-21T18:25:30.250Z,15.88
2023-02-21T18:27:57.334Z,15.63
2023-02-21T18:30:24.503Z,13.43
2023-02-21T18:32:51.730Z,12.57
2023-02-21T18:35:19.670Z,16.38
2023-02-21T18:37:47.324Z,17.42
2023-02-21T18:40:17.110Z,16.65
2023-02-21T18:42:45.063Z,15.30
2023-02-21T18:45:12.527Z,14.50
2023-02-21T18:47:39.834Z,14.90
2023-02-21T18:50:07.973Z,14.52
2023-02-21T18:52:35.082Z,14.52
2023-02-21T18:55:04.059Z,14.47
2023-02-21T18:57:31.560Z,14.07
2023-02-21T18:59:59.482Z,14.43
2023-02-21T19:02:27.141Z,14.65
2023-02-21T19:04:54.465Z,14.30
2023-02-21T19:07:21.681Z,14.03
2023-02-21T19:09:50.360Z,12.63
2023-02-21T19:12:18.230Z,12.95
2023-02-21T19:14:45.375Z,12.98
2023-02-21T19:17:12.443Z,15.52
2023-02-21T19:19:39.898Z,13.40
2023-02-21T19:22:07.206Z,12.90
2023-02-21T19:24:34.606Z,13.75
2023-02-21T19:27:02.296Z,13.13
2023-02-21T19:29:29.744Z,14.70
2023-02-21T19:31:57.435Z,18.33
2023-02-21T19:34:24.744Z,15.73
2023-02-21T19:36:51.869Z,15.90
2023-02-21T19:39:19.038Z,14.27
2023-02-21T19:41:46.956Z,16.33
2023-02-21T19:44:14.864Z,14.83
2023-02-21T19:46:42.018Z,16.33
2023-02-21T19:49:18.157Z,17.02
2023-02-21T19:51:51.207Z,16.90
2023-02-21T19:54:22.977Z,15.18
2023-02-21T19:56:50.928Z,13.33
2023-02-21T19:59:19.177Z,13.65
2023-02-21T20:01:46.358Z,14.13
2023-02-21T20:04:13.724Z,13.35
2023-02-21T20:06:40.908Z,14.20
2023-02-21T20:09:10.034Z,13.67
2023-02-21T20:11:40.247Z,13.20
2023-02-21T20:14:11.941Z,14.40
2023-02-21T20:16:42.351Z,12.30
2023-02-21T20:19:11.410Z,12.88
2023-02-21T20:21:39.231Z,11.97
2023-02-21T20:24:10.346Z,11.80
2023-02-21T20:26:38.588Z,11.52
2023-02-21T20:29:06.360Z,11.48
2023-02-21T20:31:35.836Z,10.65
2023-02-21T20:34:05.403Z,10.93
2023-02-21T20:36:39.764Z,11.48
2023-02-21T20:39:18.711Z,12.63
2023-02-21T20:41:46.680Z,10.35
2023-02-21T20:44:14.925Z,10.93
2023-02-21T20:46:42.238Z,10.60
2023-02-21T20:49:14.152Z,10.50
2023-02-21T20:51:43.156Z,10.32
2023-02-21T20:54:15.215Z,10.45
2023-02-21T20:56:42.600Z,8.60
2023-02-21T20:59:16.393Z,10.50
2023-02-21T21:01:48.257Z,9.00
2023-02-21T21:04:39.261Z,9.25
2023-02-21T21:07:20.113Z,9.18
2023-02-21T21:09:48.880Z,9.73
2023-02-21T21:12:21.150Z,9.50
2023-02-21T21:14:51.041Z,9.32
2023-02-21T21:17:20.551Z,9.05
2023-02-21T21:19:49.578Z,9.07
2023-02-21T21:22:22.877Z,10.05
2023-02-21T21:24:54.185Z,10.53
2023-02-21T21:27:22.401Z,8.88
2023-02-21T21:29:50.270Z,10.75
2023-02-21T21:32:21.923Z,9.50
2023-02-21T21:34:54.450Z,10.52
2023-02-21T21:37:29.362Z,9.40
2023-02-21T21:39:56.924Z,8.10
2023-02-21T21:42:27.959Z,9.27
2023-02-21T21:44:57.042Z,9.50
2023-02-21T21:47:33.824Z,9.23
2023-02-21T21:50:02.517Z,10.77
2023-02-21T21:52:30.148Z,10.00
2023-02-21T21:54:58.151Z,10.15
2023-02-21T21:57:28.325Z,9.02
2023-02-21T21:59:55.685Z,9.15
2023-02-21T22:02:22.780Z,10.23
2023-02-21T22:04:53.230Z,10.13
2023-02-21T22:07:20.730Z,10.23
2023-02-21T22:09:47.837Z,9.50
2023-02-21T22:12:19.189Z,10.02
2023-02-21T22:14:46.397Z,10.17
2023-02-21T22:17:13.547Z,9.88
2023-02-21T22:19:40.677Z,9.18
2023-02-21T22:22:08.343Z,10.65
2023-02-21T22:24:36.042Z,10.48
2023-02-21T22:27:03.312Z,10.70
2023-02-21T22:29:31.934Z,10.40
2023-02-21T22:31:59.097Z,9.98
2023-02-21T22:34:26.224Z,10.48
2023-02-21T22:36:56.261Z,10.38
2023-02-21T22:39:24.858Z,9.67
2023-02-21T22:41:52.589Z,9.30
2023-02-21T22:44:20.555Z,10.05
2023-02-21T22:46:59.886Z,10.00
2023-02-21T22:49:28.020Z,9.57
2023-02-21T22:51:57.640Z,9.57
2023-02-21T22:54:26.120Z,9.77
2023-02-21T22:56:54.852Z,10.77
2023-02-21T22:59:26.349Z,9.02
2023-02-21T23:01:54.073Z,9.52
2023-02-21T23:04:27.641Z,10.10
2023-02-21T23:06:57.616Z,7.78
2023-02-21T23:09:27.135Z,10.68
2023-02-21T23:11:58.992Z,10.15
2023-02-21T23:14:31.667Z,9.60
2023-02-21T23:16:59.720Z,8.70
2023-02-21T23:19:30.228Z,10.27
2023-02-21T23:22:00.524Z,9.55
2023-02-21T23:24:28.312Z,9.32
2023-02-21T23:26:55.508Z,8.70
2023-02-21T23:29:25.603Z,9.77
2023-02-21T23:31:57.946Z,9.02
2023-02-21T23:34:40.155Z,8.10
2023-02-21T23:37:09.502Z,8.35
2023-02-21T23:39:36.653Z,8.57
2023-02-21T23:42:04.339Z,8.80
2023-02-21T23:44:36.130Z,8.18
2023-02-21T23:47:05.991Z,8.73
2023-02-21T23:49:33.374Z,8.80
2023-02-21T23:52:01.674Z,9.68
2023-02-21T23:54:29.010Z,8.77
2023-02-21T23:57:00.631Z,10.05
2023-02-21T23:59:28.631Z,8.93
